Time;durP1;ratioP1;P1;durP2;ratioP2;P2;SDS_P1;SDS_P2;PMS_P1;PMS_P2;Temp;Humidity;BMP_temperature;BMP_pressure;BME280_temperature;BME280_humidity;BME280_pressure;Samples;Min_cycle;Max_cycle;Signal;HPM_P1;HPM_P2
2024/01/05 00:01:08;;;;;;;5.50;3.45;;;3.00;1.00;;;;;;5065954;28;20243;-76
2024/01/05 00:03:34;;;;;;;5.20;4.70;;;3.10;1.00;;;;;;5086672;27;20232;-76
2024/01/05 00:06:01;;;;;;;6.15;4.10;;;3.10;1.00;;;;;;5089065;28;20716;-76
2024/01/05 00:08:28;;;;;;;4.28;3.53;;;3.10;1.00;;;;;;5090597;27;20239;-74
2024/01/05 00:10:55;;;;;;;4.15;3.75;;;3.20;1.00;;;;;;5086934;27;21077;-75
2024/01/05 00:13:22;;;;;;;6.18;3.60;;;3.20;1.00;;;;;;5086643;27;20262;-78
2024/01/05 00:15:49;;;;;;;5.78;4.10;;;3.20;1.00;;;;;;5082863;27;20236;-77
2024/01/05 00:18:17;;;;;;;4.55;3.63;;;3.20;1.00;;;;;;5069828;28;20319;-77
2024/01/05 00:20:44;;;;;;;3.50;3.20;;;3.20;1.00;;;;;;5081420;28;20236;-76
2024/01/05 00:23:11;;;;;;;3.67;3.10;;;3.10;1.00;;;;;;5076755;28;20272;-77
2024/01/05 00:25:38;;;;;;;4.93;3.67;;;3.10;1.00;;;;;;5069772;28;20233;-76
2024/01/05 00:28:05;;;;;;;4.80;3.75;;;3.20;1.00;;;;;;5088434;28;20240;-76
2024/01/05 00:30:35;;;;;;;4.40;4.00;;;3.00;1.00;;;;;;5091354;28;20228;-76
2024/01/05 00:33:02;;;;;;;4.68;4.20;;;3.00;1.00;;;;;;5084166;28;20246;-75
2024/01/05 00:35:30;;;;;;;5.90;4.15;;;2.90;1.00;;;;;;5091364;27;20368;-77
2024/01/05 00:37:57;;;;;;;5.78;3.75;;;2.90;1.00;;;;;;5089635;27;20240;-76
2024/01/05 00:40:24;;;;;;;4.75;4.32;;;3.00;1.00;;;;;;5081904;27;20359;-77
2024/01/05 00:42:51;;;;;;;4.30;3.45;;;3.00;1.00;;;;;;5091081;28;20231;-76
2024/01/05 00:45:20;;;;;;;4.10;3.53;;;3.00;1.00;;;;;;5091207;28;20240;-75
2024/01/05 00:47:47;;;;;;;4.78;4.32;;;3.00;1.00;;;;;;5090521;27;20244;-74
2024/01/05 00:50:14;;;;;;;4.53;4.10;;;3.00;1.00;;;;;;5094979;28;20274;-76
2024/01/05 00:52:42;;;;;;;6.15;3.80;;;3.00;1.00;;;;;;5092459;28;20314;-76
2024/01/05 00:55:09;;;;;;;4.53;4.03;;;3.00;1.00;;;;;;5094089;28;20319;-75
2024/01/05 00:57:36;;;;;;;5.20;3.80;;;2.90;1.00;;;;;;5092876;27;20381;-76
2024/01/05 01:00:04;;;;;;;4.70;3.55;;;2.90;1.00;;;;;;5091838;28;20285;-76
2024/01/05 01:02:31;;;;;;;4.70;3.45;;;2.90;1.00;;;;;;5092775;27;20262;-76
2024/01/05 01:04:59;;;;;;;3.58;3.28;;;3.00;1.00;;;;;;5089437;28;20331;-75
2024/01/05 01:07:26;;;;;;;5.85;4.18;;;2.90;1.00;;;;;;5087949;27;20243;-75
2024/01/05 01:09:54;;;;;;;3.45;3.10;;;2.90;1.00;;;;;;5091817;27;20727;-77
2024/01/05 01:12:21;;;;;;;4.18;3.00;;;3.00;1.00;;;;;;5090364;28;21099;-76
2024/01/05 01:14:48;;;;;;;4.40;3.30;;;3.00;1.00;;;;;;5092914;28;20319;-75
2024/01/05 01:17:15;;;;;;;3.40;3.10;;;3.00;1.00;;;;;;5084219;27;20246;-76
2024/01/05 01:19:42;;;;;;;4.38;3.30;;;2.90;1.00;;;;;;5108500;27;20239;-75
2024/01/05 01:22:08;;;;;;;5.05;3.63;;;2.90;1.00;;;;;;5095542;27;20293;-74
2024/01/05 01:24:35;;;;;;;4.32;3.08;;;2.80;1.00;;;;;;5094488;27;20251;-75
2024/01/05 01:27:04;;;;;;;6.18;3.97;;;2.70;1.00;;;;;;5097616;27;20783;-76
2024/01/05 01:29:31;;;;;;;3.92;3.20;;;2.50;1.00;;;;;;5093540;27;20270;-76
2024/01/05 01:31:58;;;;;;;3.80;3.45;;;2.40;1.00;;;;;;5093949;27;21096;-75
2024/01/05 01:34:25;;;;;;;4.47;3.13;;;2.50;1.00;;;;;;5074562;27;20240;-74
2024/01/05 01:36:52;;;;;;;3.92;3.40;;;2.60;1.00;;;;;;5082347;27;20232;-75
2024/01/05 01:39:19;;;;;;;4.18;3.78;;;2.60;1.00;;;;;;5083932;27;20708;-74
2024/01/05 01:41:46;;;;;;;4.00;3.28;;;2.70;1.00;;;;;;5090099;27;21037;-75
2024/01/05 01:44:14;;;;;;;4.90;3.50;;;2.80;1.00;;;;;;5095246;27;20232;-75
2024/01/05 01:46:42;;;;;;;5.15;3.70;;;2.80;1.00;;;;;;5095994;28;20240;-75
2024/01/05 01:49:09;;;;;;;4.90;3.50;;;2.80;1.00;;;;;;5095583;27;20289;-76
2024/01/05 01:51:36;;;;;;;5.97;5.07;;;2.80;1.00;;;;;;5089941;28;20256;-76
2024/01/05 01:54:06;;;;;;;4.20;3.25;;;2.70;1.00;;;;;;5089797;28;20240;-75
2024/01/05 01:56:35;;;;;;;3.45;3.00;;;2.70;1.00;;;;;;5091791;28;20259;-76
2024/01/05 01:59:03;;;;;;;6.15;4.35;;;2.70;1.00;;;;;;5092287;27;20275;-76
2024/01/05 02:01:31;;;;;;;3.55;3.25;;;2.70;1.00;;;;;;5093439;27;20266;-76
2024/01/05 02:03:58;;;;;;;4.50;3.15;;;2.60;1.00;;;;;;5094574;28;20250;-76
2024/01/05 02:06:25;;;;;;;4.40;3.70;;;2.70;1.00;;;;;;5092212;27;20333;-76
2024/01/05 02:08:53;;;;;;;4.50;3.88;;;2.70;1.00;;;;;;5091964;27;20267;-75
2024/01/05 02:11:19;;;;;;;4.05;3.58;;;2.60;1.00;;;;;;5090683;27;20244;-76
2024/01/05 02:13:48;;;;;;;6.43;3.80;;;2.50;1.00;;;;;;5093314;27;20240;-75
2024/01/05 02:16:15;;;;;;;5.55;3.88;;;2.50;1.00;;;;;;5093739;27;20313;-76
2024/01/05 02:18:51;;;;;;;4.75;4.10;;;2.50;1.00;;;;;;5093958;27;20235;-77
2024/01/05 02:21:21;;;;;;;4.75;3.58;;;2.60;1.00;;;;;;5094689;28;20890;-76
2024/01/05 02:23:49;;;;;;;5.47;4.28;;;2.60;1.00;;;;;;5093555;27;20297;-76
2024/01/05 02:26:17;;;;;;;5.15;4.10;;;2.60;1.00;;;;;;5083468;27;20286;-75
2024/01/05 02:28:43;;;;;;;4.60;3.95;;;2.60;1.00;;;;;;5094086;27;20255;-75
2024/01/05 02:31:10;;;;;;;7.03;4.70;;;2.60;1.00;;;;;;5090713;27;20279;-75
2024/01/05 02:33:38;;;;;;;4.43;3.38;;;2.70;1.00;;;;;;5084994;27;20315;-77
2024/01/05 02:36:06;;;;;;;6.20;3.63;;;2.70;1.00;;;;;;5090579;27;20264;-74
2024/01/05 02:38:33;;;;;;;3.70;3.40;;;2.70;1.00;;;;;;5092170;27;20235;-77
2024/01/05 02:41:01;;;;;;;4.93;3.97;;;2.60;1.00;;;;;;5092562;27;20243;-75
2024/01/05 02:43:28;;;;;;;4.10;3.30;;;2.70;1.00;;;;;;5093264;27;20716;-76
2024/01/05 02:45:55;;;;;;;4.32;3.92;;;2.60;1.00;;;;;;5086572;28;20264;-76
2024/01/05 02:48:22;;;;;;;5.13;3.85;;;2.40;1.00;;;;;;5093518;28;20240;-76
2024/01/05 02:50:49;;;;;;;4.00;3.60;;;2.50;1.00;;;;;;5092330;27;20232;-76
2024/01/05 02:53:16;;;;;;;5.63;3.78;;;2.50;1.00;;;;;;5082161;28;20248;-77
2024/01/05 02:55:43;;;;;;;4.00;3.30;;;2.50;1.00;;;;;;5092716;27;20232;-77
2024/01/05 02:58:11;;;;;;;6.22;3.75;;;2.40;1.00;;;;;;5084088;27;20236;-77
2024/01/05 03:00:38;;;;;;;5.88;3.60;;;2.40;1.00;;;;;;5078694;27;21209;-76
2024/01/05 03:03:05;;;;;;;4.90;3.53;;;2.40;1.00;;;;;;5082188;28;20254;-77
2024/01/05 03:05:32;;;;;;;5.38;4.00;;;2.40;1.00;;;;;;5092658;27;20302;-77
2024/01/05 03:07:59;;;;;;;6.15;4.15;;;2.50;1.00;;;;;;5085294;27;20421;-75
2024/01/05 03:10:26;;;;;;;16.30;3.80;;;2.50;1.00;;;;;;5076158;27;20271;-76
2024/01/05 03:12:53;;;;;;;4.07;3.45;;;2.50;1.00;;;;;;5079498;28;20282;-76
2024/01/05 03:15:21;;;;;;;4.15;3.70;;;2.50;1.00;;;;;;5092370;27;20247;-77
2024/01/05 03:17:48;;;;;;;6.15;4.88;;;2.50;1.00;;;;;;5093024;28;20271;-75
2024/01/05 03:20:17;;;;;;;5.70;4.38;;;2.40;1.00;;;;;;5092359;27;20232;-75
2024/01/05 03:22:44;;;;;;;7.00;6.30;;;2.40;1.00;;;;;;5082663;27;20237;-76
2024/01/05 03:25:11;;;;;;;5.05;3.83;;;2.40;1.00;;;;;;5073826;27;20332;-75
2024/01/05 03:27:38;;;;;;;6.43;5.43;;;2.40;1.00;;;;;;5072834;28;20624;-75
2024/01/05 03:30:07;;;;;;;5.57;4.97;;;2.40;1.00;;;;;;5080853;28;20327;-75
2024/01/05 03:32:35;;;;;;;13.00;4.70;;;2.30;1.00;;;;;;5080826;28;20240;-74
2024/01/05 03:35:02;;;;;;;5.25;4.10;;;2.40;1.00;;;;;;5091757;28;20333;-74
2024/01/05 03:37:29;;;;;;;5.57;4.93;;;2.30;1.00;;;;;;5088415;27;20262;-74
2024/01/05 03:39:55;;;;;;;5.95;4.90;;;2.40;1.00;;;;;;5070714;28;20315;-73
2024/01/05 03:42:22;;;;;;;6.47;4.93;;;2.40;1.00;;;;;;5074799;27;20340;-74
2024/01/05 03:44:49;;;;;;;6.00;5.10;;;2.30;1.00;;;;;;5092713;28;20259;-74
2024/01/05 03:47:16;;;;;;;6.53;5.80;;;2.30;1.00;;;;;;5073596;27;20945;-75
2024/01/05 03:49:44;;;;;;;5.25;4.75;;;2.20;1.00;;;;;;5090459;27;20359;-74
2024/01/05 03:52:11;;;;;;;5.57;5.00;;;2.20;1.00;;;;;;5089311;27;20330;-74
2024/01/05 03:54:38;;;;;;;6.38;5.07;;;2.20;1.00;;;;;;5078788;27;20240;-74
2024/01/05 03:57:05;;;;;;;5.13;4.63;;;2.20;1.00;;;;;;5070042;28;20310;-74
2024/01/05 03:59:32;;;;;;;7.00;6.30;;;2.30;1.00;;;;;;5068659;28;20240;-76
2024/01/05 04:01:59;;;;;;;5.82;4.80;;;2.30;1.00;;;;;;5085235;28;20679;-74
2024/01/05 04:04:26;;;;;;;5.75;5.15;;;2.20;1.00;;;;;;5087238;27;20232;-75
2024/01/05 04:06:55;;;;;;;7.40;5.43;;;2.20;1.00;;;;;;5077043;27;20275;-74
2024/01/05 04:09:21;;;;;;;4.90;4.40;;;2.20;1.00;;;;;;5070376;27;20320;-74
2024/01/05 04:11:48;;;;;;;5.32;4.80;;;2.20;1.00;;;;;;5071032;27;20298;-75
2024/01/05 04:14:15;;;;;;;6.25;5.45;;;2.20;1.00;;;;;;5069777;27;20272;-76
2024/01/05 04:16:42;;;;;;;5.80;5.05;;;2.10;1.00;;;;;;5069607;28;20338;-76
2024/01/05 04:19:09;;;;;;;5.93;5.00;;;2.20;1.00;;;;;;5082105;28;20240;-75
2024/01/05 04:21:36;;;;;;;7.07;5.50;;;2.20;1.00;;;;;;5072329;27;20237;-75
2024/01/05 04:24:04;;;;;;;6.82;5.60;;;2.10;1.00;;;;;;5080770;28;20812;-75
2024/01/05 04:26:31;;;;;;;6.50;5.65;;;2.10;1.00;;;;;;5072341;28;20790;-74
2024/01/05 04:28:58;;;;;;;7.38;5.38;;;2.10;1.00;;;;;;5073095;28;20248;-76
2024/01/05 04:31:25;;;;;;;6.60;5.90;;;2.10;1.00;;;;;;5072738;28;20241;-76
2024/01/05 04:33:54;;;;;;;8.20;6.07;;;2.10;1.00;;;;;;5068801;28;20332;-74
2024/01/05 04:36:21;;;;;;;7.30;6.05;;;2.20;1.00;;;;;;5073074;27;22213;-75
2024/01/05 04:38:48;;;;;;;8.65;6.03;;;2.10;1.00;;;;;;5077663;27;21111;-75
2024/01/05 04:41:17;;;;;;;8.70;6.40;;;2.10;1.00;;;;;;5071040;27;20792;-74
2024/01/05 04:43:45;;;;;;;5.88;5.30;;;2.00;1.00;;;;;;5090981;27;20236;-73
2024/01/05 04:46:12;;;;;;;7.45;5.82;;;1.90;1.00;;;;;;5092358;28;20950;-75
2024/01/05 04:48:39;;;;;;;6.97;5.82;;;1.90;1.00;;;;;;5079155;28;20271;-76
2024/01/05 04:51:06;;;;;;;5.07;4.57;;;1.90;1.00;;;;;;5076313;27;20247;-76
2024/01/05 04:53:33;;;;;;;9.32;4.90;;;1.90;1.00;;;;;;5093379;27;20306;-76
2024/01/05 04:56:00;;;;;;;5.97;5.38;;;1.90;1.00;;;;;;5093334;27;20283;-78
2024/01/05 04:58:28;;;;;;;6.22;4.35;;;1.90;1.00;;;;;;5080777;28;21100;-76
2024/01/05 05:00:55;;;;;;;5.57;4.82;;;1.80;1.00;;;;;;5080628;28;20707;-75
2024/01/05 05:03:24;;;;;;;8.43;4.35;;;1.80;1.00;;;;;;5090464;28;20240;-76
2024/01/05 05:05:50;;;;;;;5.47;4.70;;;1.70;1.00;;;;;;5094187;27;20375;-76
2024/01/05 05:08:17;;;;;;;5.25;4.80;;;1.70;1.00;;;;;;5095020;27;20259;-77
2024/01/05 05:10:44;;;;;;;4.80;4.32;;;1.70;1.00;;;;;;5089677;27;20932;-75
2024/01/05 05:13:11;;;;;;;4.93;3.95;;;1.70;1.00;;;;;;5092147;27;21013;-77
2024/01/05 05:15:39;;;;;;;5.45;3.88;;;1.80;1.00;;;;;;5092955;27;20236;-76
2024/01/05 05:18:06;;;;;;;8.27;5.45;;;1.80;1.00;;;;;;5078706;27;20229;-74
2024/01/05 05:20:33;;;;;;;6.35;3.83;;;1.80;1.00;;;;;;5086341;27;20244;-74
2024/01/05 05:23:00;;;;;;;6.60;4.97;;;1.80;1.00;;;;;;5079767;27;20318;-75
2024/01/05 05:25:29;;;;;;;5.57;4.22;;;1.70;1.00;;;;;;5074222;28;20455;-76
2024/01/05 05:27:57;;;;;;;6.20;5.13;;;1.70;1.00;;;;;;5079156;28;20344;-76
2024/01/05 05:30:23;;;;;;;7.45;4.75;;;1.70;1.00;;;;;;5093601;27;20310;-76
2024/01/05 05:32:52;;;;;;;5.72;4.90;;;1.70;1.00;;;;;;5095307;27;20763;-76
2024/01/05 05:35:19;;;;;;;6.05;5.35;;;1.70;1.00;;;;;;5092458;27;20314;-77
2024/01/05 05:37:46;;;;;;;6.57;4.97;;;1.70;1.00;;;;;;5081219;28;20257;-76
2024/01/05 05:40:14;;;;;;;5.13;4.40;;;1.70;1.00;;;;;;5081657;27;20241;-75
2024/01/05 05:42:41;;;;;;;8.20;5.38;;;1.70;1.00;;;;;;5084623;27;20248;-78
2024/01/05 05:45:09;;;;;;;6.03;5.47;;;1.70;1.00;;;;;;5077193;28;20236;-76
2024/01/05 05:47:35;;;;;;;5.45;4.63;;;1.80;1.00;;;;;;5084034;27;21075;-74
2024/01/05 05:50:06;;;;;;;7.72;5.28;;;1.70;1.00;;;;;;5093482;27;20275;-76
2024/01/05 05:52:34;;;;;;;7.18;5.38;;;1.60;1.00;;;;;;5090904;28;20232;-76
2024/01/05 05:55:01;;;;;;;6.75;6.05;;;1.50;1.00;;;;;;5078797;28;20237;-72
2024/01/05 05:57:29;;;;;;;5.40;4.43;;;1.60;1.00;;;;;;5072160;27;20315;-72
2024/01/05 05:59:56;;;;;;;4.65;4.25;;;1.60;1.00;;;;;;5076930;28;20240;-73
2024/01/05 06:02:23;;;;;;;6.50;5.43;;;1.60;1.00;;;;;;5085285;27;20324;-72
2024/01/05 06:04:49;;;;;;;4.90;4.05;;;1.60;1.00;;;;;;5071488;28;20348;-72
2024/01/05 06:07:18;;;;;;;5.07;4.60;;;1.60;1.00;;;;;;5073039;28;21006;-71
2024/01/05 06:09:45;;;;;;;7.63;4.60;;;1.60;1.00;;;;;;5095211;28;20235;-73
2024/01/05 06:12:12;;;;;;;8.60;7.00;;;1.60;1.00;;;;;;5088468;28;20251;-74
2024/01/05 06:14:39;;;;;;;5.35;4.40;;;1.60;1.00;;;;;;5085995;27;20793;-72
2024/01/05 06:17:06;;;;;;;5.50;3.80;;;1.70;1.00;;;;;;5092156;27;20260;-73
2024/01/05 06:19:33;;;;;;;4.50;4.10;;;1.70;1.00;;;;;;5091885;27;20281;-74
2024/01/05 06:22:00;;;;;;;6.88;6.18;;;1.80;1.00;;;;;;5094021;27;20267;-71
2024/01/05 06:24:29;;;;;;;5.65;5.03;;;1.80;1.00;;;;;;5088239;28;22196;-73
2024/01/05 06:26:56;;;;;;;4.25;3.70;;;1.80;1.00;;;;;;5093552;27;20247;-72
2024/01/05 06:29:23;;;;;;;4.70;3.70;;;1.80;1.00;;;;;;5093187;27;20232;-72
2024/01/05 06:31:50;;;;;;;4.35;3.95;;;1.80;1.00;;;;;;5091689;27;21072;-71
2024/01/05 06:34:17;;;;;;;5.10;4.60;;;1.90;1.00;;;;;;5093197;27;20317;-75
2024/01/05 06:36:44;;;;;;;7.20;4.55;;;2.00;1.00;;;;;;5077593;27;20241;-71
2024/01/05 06:39:11;;;;;;;6.28;4.45;;;2.00;1.00;;;;;;5072346;27;20279;-73
2024/01/05 06:41:39;;;;;;;6.20;4.38;;;2.00;1.00;;;;;;5087806;27;20235;-74
2024/01/05 06:44:06;;;;;;;6.15;3.97;;;2.00;1.00;;;;;;5072525;28;20260;-72
2024/01/05 06:46:33;;;;;;;6.30;4.35;;;2.00;1.00;;;;;;5071446;27;20404;-73
2024/01/05 06:49:00;;;;;;;4.38;3.83;;;1.90;1.00;;;;;;5085901;28;20259;-72
2024/01/05 06:51:29;;;;;;;4.50;4.07;;;1.70;1.00;;;;;;5090530;27;21647;-71
2024/01/05 06:53:57;;;;;;;5.40;3.60;;;1.80;1.00;;;;;;5092015;27;20715;-73
2024/01/05 06:56:27;;;;;;;5.22;4.05;;;1.70;1.00;;;;;;5082800;27;21073;-74
2024/01/05 06:58:57;;;;;;;8.13;5.07;;;1.70;1.00;;;;;;5077901;28;20237;-73
2024/01/05 07:01:23;;;;;;;8.07;5.40;;;1.60;1.00;;;;;;5073593;28;20766;-73
2024/01/05 07:03:52;;;;;;;8.85;5.40;;;1.70;1.00;;;;;;5075048;28;20887;-73
2024/01/05 07:06:18;;;;;;;6.40;4.95;;;1.60;1.00;;;;;;5086440;27;21011;-72
2024/01/05 07:08:45;;;;;;;6.35;4.20;;;1.60;1.00;;;;;;5077823;28;20267;-73
2024/01/05 07:11:21;;;;;;;6.18;4.97;;;1.50;1.00;;;;;;5088467;27;20256;-74
2024/01/05 07:13:48;;;;;;;7.63;4.70;;;1.50;1.00;;;;;;5081671;27;21020;-73
2024/01/05 07:16:19;;;;;;;7.13;5.93;;;1.50;1.00;;;;;;5089243;27;21158;-72
2024/01/05 07:18:49;;;;;;;12.45;7.28;;;1.50;1.00;;;;;;5091888;27;20236;-73
2024/01/05 07:21:17;;;;;;;9.57;7.28;;;1.40;1.00;;;;;;5083989;27;20672;-73
2024/01/05 07:23:44;;;;;;;8.70;5.72;;;1.40;1.00;;;;;;5086930;27;20260;-73
2024/01/05 07:26:11;;;;;;;8.13;6.15;;;1.40;1.00;;;;;;5066244;28;20240;-76
2024/01/05 07:28:38;;;;;;;11.55;6.68;;;1.40;1.00;;;;;;5079283;28;20240;-72
2024/01/05 07:31:06;;;;;;;13.18;7.80;;;1.40;1.00;;;;;;5078605;27;20236;-73
2024/01/05 07:33:34;;;;;;;8.63;6.50;;;1.30;1.00;;;;;;5066817;27;25210;-72
2024/01/05 07:36:05;;;;;;;10.25;7.80;;;1.30;1.00;;;;;;5084345;27;20808;-72
2024/01/05 07:38:34;;;;;;;11.38;8.27;;;1.30;1.00;;;;;;5087311;27;20239;-72
2024/01/05 07:41:01;;;;;;;10.50;6.70;;;1.30;1.00;;;;;;5072443;28;20325;-71
2024/01/05 07:43:28;;;;;;;9.75;6.90;;;1.30;1.00;;;;;;5068847;28;20234;-73
2024/01/05 07:45:55;;;;;;;8.45;6.70;;;1.30;1.00;;;;;;5087238;27;20252;-75
2024/01/05 07:48:22;;;;;;;9.07;7.07;;;1.30;1.00;;;;;;5070929;27;20817;-74
2024/01/05 07:50:51;;;;;;;14.27;7.25;;;1.30;1.00;;;;;;5100236;27;20266;-76
2024/01/05 07:53:18;;;;;;;11.55;8.10;;;1.20;1.00;;;;;;5073583;28;20259;-72
2024/01/05 07:55:46;;;;;;;9.93;7.72;;;1.20;1.00;;;;;;5085552;27;20329;-75
2024/01/05 07:58:13;;;;;;;12.52;7.75;;;1.10;1.00;;;;;;5068299;28;20232;-74
2024/01/05 08:00:40;;;;;;;11.02;8.05;;;1.20;1.00;;;;;;5072964;28;20338;-73
2024/01/05 08:03:07;;;;;;;9.57;7.10;;;1.20;1.00;;;;;;5079114;27;20241;-75
2024/01/05 08:05:34;;;;;;;9.50;6.97;;;1.10;1.00;;;;;;5082641;27;20328;-75
2024/01/05 08:08:03;;;;;;;10.95;7.50;;;1.10;1.00;;;;;;5090169;27;20712;-73
2024/01/05 08:10:31;;;;;;;8.30;7.20;;;1.10;1.00;;;;;;5080779;28;20301;-73
2024/01/05 08:12:58;;;;;;;11.00;7.40;;;1.10;1.00;;;;;;5090049;28;20233;-73
2024/01/05 08:15:25;;;;;;;9.43;7.40;;;1.20;1.00;;;;;;5089820;28;20266;-73
2024/01/05 08:17:52;;;;;;;9.73;7.68;;;1.20;1.00;;;;;;5092409;27;20239;-72
2024/01/05 08:20:19;;;;;;;13.98;10.50;;;1.20;1.00;;;;;;5079596;28;20236;-75
2024/01/05 08:22:47;;;;;;;11.02;8.30;;;1.20;1.00;;;;;;5065459;28;20622;-73
2024/01/05 08:25:16;;;;;;;9.02;8.13;;;1.30;1.00;;;;;;5080023;28;20237;-73
2024/01/05 08:27:43;;;;;;;9.93;8.18;;;1.30;1.00;;;;;;5082866;27;20630;-73
2024/01/05 08:30:12;;;;;;;10.65;7.72;;;1.30;1.00;;;;;;5090994;27;20266;-75
2024/01/05 08:32:39;;;;;;;12.05;7.90;;;1.30;1.00;;;;;;5089582;27;20331;-72
2024/01/05 08:35:07;;;;;;;9.48;7.85;;;1.20;1.00;;;;;;5089764;27;20297;-74
2024/01/05 08:37:34;;;;;;;12.55;9.38;;;1.20;1.00;;;;;;5089048;27;20777;-72
2024/01/05 08:40:02;;;;;;;10.20;7.50;;;1.20;1.00;;;;;;5091157;27;20311;-73
2024/01/05 08:42:31;;;;;;;8.45;6.88;;;1.20;1.00;;;;;;5092616;27;20266;-73
2024/01/05 08:44:58;;;;;;;10.40;8.13;;;1.20;1.00;;;;;;5091863;28;20691;-72
2024/01/05 08:47:25;;;;;;;9.75;7.15;;;1.20;1.00;;;;;;5089991;28;20231;-73
2024/01/05 08:49:52;;;;;;;6.97;6.22;;;1.20;1.00;;;;;;5094387;27;20726;-72
2024/01/05 08:52:19;;;;;;;8.18;7.05;;;1.10;1.00;;;;;;5091673;27;20236;-73
2024/01/05 08:54:46;;;;;;;8.07;7.03;;;1.10;1.00;;;;;;5091236;27;20358;-74
2024/01/05 08:57:13;;;;;;;8.60;6.53;;;1.20;1.00;;;;;;5092761;27;20243;-74
2024/01/05 08:59:43;;;;;;;13.13;8.50;;;1.20;1.00;;;;;;5092710;28;20331;-74
2024/01/05 09:02:10;;;;;;;8.90;7.18;;;1.10;1.00;;;;;;5091174;27;20260;-74
2024/01/05 09:04:37;;;;;;;9.65;6.35;;;1.20;1.00;;;;;;5090478;27;21230;-73
2024/01/05 09:07:04;;;;;;;11.43;7.47;;;1.20;1.00;;;;;;5088959;28;20704;-74
2024/01/05 09:09:31;;;;;;;7.30;6.18;;;1.20;1.00;;;;;;5088536;28;20235;-74
2024/01/05 09:11:59;;;;;;;11.25;9.05;;;1.20;1.00;;;;;;5091044;27;20236;-74
2024/01/05 09:14:26;;;;;;;7.60;6.30;;;1.20;1.00;;;;;;5078493;27;20724;-75
2024/01/05 09:16:53;;;;;;;8.50;6.38;;;1.20;1.00;;;;;;5085533;27;20289;-74
2024/01/05 09:19:20;;;;;;;7.22;6.53;;;1.20;1.00;;;;;;5079867;28;20239;-74
2024/01/05 09:21:47;;;;;;;9.00;6.85;;;1.20;1.00;;;;;;5069395;28;20286;-75
2024/01/05 09:24:14;;;;;;;6.90;6.20;;;1.20;1.00;;;;;;5069178;28;20244;-75
2024/01/05 09:26:42;;;;;;;9.30;7.57;;;1.20;1.00;;;;;;5074155;28;20290;-74
2024/01/05 09:29:08;;;;;;;7.07;5.75;;;1.20;1.00;;;;;;5086315;28;20244;-75
2024/01/05 09:31:36;;;;;;;8.90;8.07;;;1.30;1.00;;;;;;5084464;28;20981;-75
2024/01/05 09:34:04;;;;;;;7.75;6.85;;;1.30;1.00;;;;;;5069013;27;20279;-75
2024/01/05 09:36:31;;;;;;;8.18;6.38;;;1.20;1.00;;;;;;5088407;27;20240;-75
2024/01/05 09:39:00;;;;;;;7.95;7.15;;;1.20;1.00;;;;;;5090641;27;20338;-73
2024/01/05 09:41:26;;;;;;;9.13;7.22;;;1.10;1.00;;;;;;5088440;27;20732;-73
2024/01/05 09:43:55;;;;;;;7.20;6.45;;;1.10;1.00;;;;;;5089997;27;20240;-75
2024/01/05 09:46:22;;;;;;;9.32;7.68;;;1.10;1.00;;;;;;5091523;27;20261;-75
2024/01/05 09:48:49;;;;;;;10.20;7.68;;;1.20;1.00;;;;;;5089003;27;20235;-76
2024/01/05 09:51:18;;;;;;;8.52;6.93;;;1.20;1.00;;;;;;5068765;27;20233;-76
2024/01/05 09:53:46;;;;;;;7.60;6.90;;;1.30;1.00;;;;;;5076702;27;20262;-75
2024/01/05 09:56:15;;;;;;;7.75;5.95;;;1.30;1.00;;;;;;5082218;27;21079;-71
2024/01/05 09:58:45;;;;;;;8.15;7.05;;;1.30;1.00;;;;;;5078716;27;20239;-72
2024/01/05 10:01:19;;;;;;;7.93;6.63;;;1.50;1.00;;;;;;5069896;28;20233;-72
2024/01/05 10:03:46;;;;;;;7.38;5.82;;;1.50;1.00;;;;;;5091818;27;20318;-73
2024/01/05 10:06:18;;;;;;;7.47;5.75;;;1.40;1.00;;;;;;5077684;27;20287;-74
2024/01/05 10:08:45;;;;;;;6.32;5.72;;;1.40;1.00;;;;;;5074418;27;20708;-73
2024/01/05 10:11:12;;;;;;;7.63;5.68;;;1.50;1.00;;;;;;5081075;28;20255;-76
2024/01/05 10:13:54;;;;;;;6.15;5.53;;;1.60;1.00;;;;;;5092587;27;20232;-75
2024/01/05 10:16:23;;;;;;;8.05;6.05;;;1.60;1.00;;;;;;5089906;27;20239;-75
2024/01/05 10:18:51;;;;;;;7.55;6.10;;;1.50;1.00;;;;;;5091893;27;20236;-74
2024/01/05 10:21:23;;;;;;;10.45;7.50;;;1.40;1.00;;;;;;5090152;28;20231;-77
2024/01/05 10:23:51;;;;;;;8.27;5.55;;;1.40;1.00;;;;;;5096001;28;20235;-75
2024/01/05 10:26:20;;;;;;;9.38;6.82;;;1.50;1.00;;;;;;5091140;28;20289;-73
2024/01/05 10:28:48;;;;;;;6.72;5.72;;;1.40;1.00;;;;;;5090477;27;20232;-73
2024/01/05 10:31:16;;;;;;;6.68;5.55;;;1.50;1.00;;;;;;5092672;28;20240;-75
2024/01/05 10:33:51;;;;;;;6.70;5.65;;;1.50;1.00;;;;;;5092723;27;20319;-74
2024/01/05 10:36:26;;;;;;;7.10;6.40;;;1.60;1.00;;;;;;5089183;27;20240;-71
2024/01/05 10:38:56;;;;;;;6.15;5.45;;;1.50;1.00;;;;;;5090451;28;20240;-73
2024/01/05 10:41:26;;;;;;;6.10;5.32;;;1.50;1.00;;;;;;5090728;28;20956;-73
2024/01/05 10:43:53;;;;;;;6.93;5.13;;;1.50;1.00;;;;;;5090732;27;20289;-71
2024/01/05 10:46:21;;;;;;;5.30;4.80;;;1.40;1.00;;;;;;5088667;27;20290;-75
2024/01/05 10:48:48;;;;;;;6.15;5.25;;;1.50;1.00;;;;;;5092350;28;20236;-74
2024/01/05 10:51:18;;;;;;;7.40;5.45;;;1.50;1.00;;;;;;5092872;28;20323;-73
2024/01/05 10:53:48;;;;;;;7.40;5.90;;;1.40;1.00;;;;;;5093015;27;20232;-72
2024/01/05 10:56:15;;;;;;;7.80;5.65;;;1.40;1.00;;;;;;5089868;28;20267;-72
2024/01/05 10:58:43;;;;;;;6.05;5.30;;;1.40;1.00;;;;;;5093964;27;21211;-74
2024/01/05 11:01:14;;;;;;;10.50;5.47;;;1.40;1.00;;;;;;5092378;27;20236;-73
2024/01/05 11:03:44;;;;;;;6.55;5.88;;;1.40;1.00;;;;;;5091968;28;20236;-71
2024/01/05 11:06:13;;;;;;;5.78;5.00;;;1.40;1.00;;;;;;5080254;27;20233;-72
2024/01/05 11:08:48;;;;;;;6.53;5.85;;;1.40;1.00;;;;;;5071749;28;20232;-72
2024/01/05 11:11:29;;;;;;;6.32;5.72;;;1.30;1.00;;;;;;5064519;27;20260;-73
2024/01/05 11:14:24;;;;;;;7.28;6.57;;;1.30;1.00;;;;;;5073247;27;20398;-74
2024/01/05 11:17:43;;;;;;;6.00;5.35;;;1.20;1.00;;;;;;5074931;27;20748;-78
2024/01/05 11:20:21;;;;;;;8.57;6.70;;;1.20;1.00;;;;;;5033120;28;20435;-76
2024/01/05 11:22:50;;;;;;;6.78;6.13;;;1.20;1.00;;;;;;5078398;28;20243;-78
2024/01/05 11:25:17;;;;;;;6.72;6.05;;;1.20;1.00;;;;;;5076440;27;20233;-76
2024/01/05 11:27:47;;;;;;;7.20;6.47;;;1.20;1.00;;;;;;5075279;27;20314;-78
2024/01/05 11:30:14;;;;;;;7.47;6.78;;;1.20;1.00;;;;;;5088384;27;20251;-75
2024/01/05 11:32:44;;;;;;;6.72;5.90;;;1.20;1.00;;;;;;5097023;27;21311;-76
2024/01/05 11:35:51;;;;;;;7.93;6.03;;;1.30;1.00;;;;;;5095922;27;21102;-76
2024/01/05 11:38:26;;;;;;;8.70;7.90;;;1.30;1.00;;;;;;5090075;27;20411;-75
2024/01/05 11:40:53;;;;;;;7.03;5.93;;;1.30;1.00;;;;;;5097844;27;20251;-76
2024/01/05 11:43:36;;;;;;;7.43;6.65;;;1.30;1.00;;;;;;5095260;27;20755;-76
2024/01/05 11:46:04;;;;;;;9.18;7.40;;;1.30;1.00;;;;;;5097654;27;20358;-77
2024/01/05 11:48:51;;;;;;;10.07;8.98;;;1.40;1.00;;;;;;5096221;27;20238;-76
2024/01/05 11:51:18;;;;;;;6.47;5.70;;;1.40;1.00;;;;;;5094459;28;20240;-76
2024/01/05 11:53:47;;;;;;;6.85;6.15;;;1.50;1.00;;;;;;5094438;27;20220;-75
2024/01/05 11:56:17;;;;;;;6.88;6.18;;;1.40;1.00;;;;;;5096744;28;20781;-74
2024/01/05 11:58:46;;;;;;;7.40;6.57;;;1.40;1.00;;;;;;5095702;27;20240;-75
2024/01/05 12:01:16;;;;;;;7.90;6.60;;;1.40;1.00;;;;;;5096990;27;20251;-75
2024/01/05 12:03:44;;;;;;;7.25;5.85;;;1.30;1.00;;;;;;5095833;28;20232;-76
2024/01/05 12:06:12;;;;;;;7.20;5.78;;;1.30;1.00;;;;;;5094543;27;20263;-77
2024/01/05 12:08:40;;;;;;;6.85;5.95;;;1.30;1.00;;;;;;5109598;27;20979;-76
2024/01/05 12:11:11;;;;;;;8.00;6.97;;;1.30;1.00;;;;;;5095049;27;20756;-76
2024/01/05 12:13:39;;;;;;;7.40;6.45;;;1.30;1.00;;;;;;5094884;27;20957;-76
2024/01/05 12:16:08;;;;;;;12.52;11.43;;;1.40;1.00;;;;;;5089743;27;20299;-77
2024/01/05 12:18:45;;;;;;;6.63;5.97;;;1.40;1.00;;;;;;5071303;28;20738;-76
2024/01/05 12:21:14;;;;;;;6.57;5.60;;;1.30;1.00;;;;;;5072866;28;20362;-77
2024/01/05 12:23:51;;;;;;;5.78;5.20;;;1.30;1.00;;;;;;5071476;28;20948;-76
2024/01/05 12:26:19;;;;;;;9.02;6.25;;;1.30;1.00;;;;;;5091501;27;20731;-77
2024/01/05 12:28:48;;;;;;;6.45;5.88;;;1.30;1.00;;;;;;5090877;27;20236;-75
2024/01/05 12:31:17;;;;;;;8.18;6.03;;;1.30;1.00;;;;;;5091332;28;21281;-77
2024/01/05 12:33:45;;;;;;;6.97;5.65;;;1.30;1.00;;;;;;5078380;28;20236;-76
2024/01/05 12:36:24;;;;;;;6.35;5.65;;;1.40;1.00;;;;;;5075321;28;21008;-74
2024/01/05 12:38:51;;;;;;;5.85;5.20;;;1.40;1.00;;;;;;5071315;28;21127;-75
2024/01/05 12:41:22;;;;;;;7.25;5.80;;;1.40;1.00;;;;;;5087444;27;20240;-75
2024/01/05 12:43:51;;;;;;;7.07;6.35;;;1.50;1.00;;;;;;5082581;27;20252;-74
2024/01/05 12:46:20;;;;;;;7.28;5.57;;;1.70;1.00;;;;;;5075105;28;20236;-75
2024/01/05 12:48:47;;;;;;;6.55;5.88;;;1.70;1.00;;;;;;5090029;28;20232;-75
2024/01/05 12:51:15;;;;;;;5.97;5.47;;;1.80;1.00;;;;;;5067928;28;21023;-77
2024/01/05 12:53:44;;;;;;;7.15;6.45;;;1.80;1.00;;;;;;5087305;27;21123;-75
2024/01/05 12:56:13;;;;;;;6.43;5.68;;;1.70;1.00;;;;;;5091483;27;21079;-76
2024/01/05 12:58:41;;;;;;;8.43;6.30;;;1.60;1.00;;;;;;5080623;27;20245;-77
2024/01/05 13:01:15;;;;;;;6.57;5.90;;;1.60;1.00;;;;;;5073008;28;20382;-75
2024/01/05 13:03:51;;;;;;;7.90;6.50;;;1.70;1.00;;;;;;5091991;27;20236;-74
2024/01/05 13:06:19;;;;;;;8.45;6.72;;;1.80;1.00;;;;;;5083947;28;20231;-74
2024/01/05 13:08:46;;;;;;;6.85;6.25;;;1.70;1.00;;;;;;5070468;27;20352;-74
2024/01/05 13:11:13;;;;;;;7.80;6.55;;;1.70;1.00;;;;;;5081226;27;20326;-74
2024/01/05 13:13:40;;;;;;;6.95;6.25;;;1.60;1.00;;;;;;5084070;28;20696;-74